createdAt,value
2023-01-08T00:01:59.787Z,80.16
2023-01-08T00:04:02.310Z,79.49
2023-01-08T00:06:05.974Z,79.73
2023-01-08T00:08:09.544Z,79.10
2023-01-08T00:10:11.005Z,79.50
2023-01-08T00:12:12.432Z,79.42
2023-01-08T00:14:13.874Z,80.18
2023-01-08T00:16:17.987Z,80.18
2023-01-08T00:18:19.791Z,79.90
2023-01-08T00:20:21.445Z,79.57
2023-01-08T00:22:22.914Z,79.31
2023-01-08T00:24:24.459Z,80.00
2023-01-08T00:26:25.907Z,80.33
2023-01-08T00:28:27.349Z,80.21
2023-01-08T00:30:29.211Z,80.85
2023-01-08T00:32:30.670Z,80.87
2023-01-08T00:34:32.160Z,80.64
2023-01-08T00:36:33.629Z,80.27
2023-01-08T00:38:35.089Z,80.10
2023-01-08T00:40:37.289Z,80.21
2023-01-08T00:42:38.761Z,80.73
2023-01-08T00:44:40.249Z,80.62
2023-01-08T00:46:41.698Z,80.91
2023-01-08T00:48:43.136Z,81.55
2023-01-08T00:50:44.586Z,81.25
2023-01-08T00:52:46.053Z,81.55
2023-01-08T00:54:47.491Z,81.42
2023-01-08T00:56:48.975Z,81.43
2023-01-08T00:58:50.394Z,82.21
2023-01-08T01:00:51.916Z,81.61
2023-01-08T01:02:53.391Z,82.15
2023-01-08T01:04:54.868Z,82.46
2023-01-08T01:06:56.320Z,81.74
2023-01-08T01:08:57.792Z,82.05
2023-01-08T01:10:59.299Z,82.10
2023-01-08T01:13:00.785Z,81.95
2023-01-08T01:15:02.344Z,82.19
2023-01-08T01:17:04.726Z,82.47
2023-01-08T01:19:06.236Z,82.61
2023-01-08T01:21:22.195Z,82.77
2023-01-08T01:23:23.664Z,82.87
2023-01-08T01:25:25.101Z,83.28
2023-01-08T01:27:26.879Z,83.17
2023-01-08T01:29:28.402Z,83.07
2023-01-08T01:31:31.571Z,84.06
2023-01-08T01:33:33.092Z,83.66
2023-01-08T01:35:34.546Z,84.33
2023-01-08T01:37:36.159Z,83.67
2023-01-08T01:39:37.631Z,84.22
2023-01-08T01:41:44.670Z,84.10
2023-01-08T01:43:46.106Z,83.78
2023-01-08T01:45:47.667Z,84.19
2023-01-08T01:48:05.853Z,84.86
2023-01-08T01:50:07.425Z,83.93
2023-01-08T01:52:09.778Z,84.54
2023-01-08T01:54:13.132Z,84.38
2023-01-08T01:56:15.135Z,85.16
2023-01-08T01:58:21.414Z,85.09
2023-01-08T02:00:23.285Z,84.94
2023-01-08T02:02:24.896Z,85.32
2023-01-08T02:04:26.506Z,84.97
2023-01-08T02:06:36.652Z,85.58
2023-01-08T02:08:57.262Z,85.01
2023-01-08T02:11:11.525Z,85.34
2023-01-08T02:13:17.643Z,84.87
2023-01-08T02:15:37.458Z,85.03
2023-01-08T02:18:06.905Z,84.56
2023-01-08T02:20:11.627Z,84.92
2023-01-08T02:22:36.679Z,85.04
2023-01-08T02:24:50.214Z,84.48
2023-01-08T02:26:53.751Z,84.63
2023-01-08T02:29:07.533Z,84.47
2023-01-08T02:31:09.331Z,84.99
2023-01-08T02:33:11.897Z,84.64
2023-01-08T02:35:13.451Z,84.42
2023-01-08T02:37:14.965Z,85.13
2023-01-08T02:39:50.285Z,84.83
2023-01-08T02:42:06.811Z,85.30
2023-01-08T02:44:12.456Z,84.87
2023-01-08T02:46:27.961Z,84.96
2023-01-08T02:48:35.327Z,84.81
2023-01-08T02:50:53.352Z,84.74
2023-01-08T02:53:13.004Z,84.63
2023-01-08T02:55:16.820Z,84.36
2023-01-08T02:57:20.035Z,84.72
2023-01-08T02:59:23.660Z,84.63
2023-01-08T03:01:27.313Z,83.91
2023-01-08T03:03:31.000Z,84.17
2023-01-08T03:05:33.573Z,84.05
2023-01-08T03:07:35.914Z,84.51
2023-01-08T03:09:37.506Z,84.40
2023-01-08T03:11:49.811Z,84.30
2023-01-08T03:14:20.271Z,84.58
2023-01-08T03:16:29.286Z,84.14
2023-01-08T03:18:39.878Z,84.76
2023-01-08T03:20:42.103Z,84.61
2023-01-08T03:22:47.762Z,85.19
2023-01-08T03:24:52.714Z,84.55
2023-01-08T03:26:58.398Z,84.27
2023-01-08T03:29:01.403Z,84.47
2023-01-08T03:31:03.380Z,84.40
2023-01-08T03:33:07.133Z,84.77
2023-01-08T03:35:11.643Z,84.33
2023-01-08T03:37:15.769Z,84.57
2023-01-08T03:39:22.760Z,84.63
2023-01-08T03:41:27.795Z,84.78
2023-01-08T03:43:29.829Z,84.36
2023-01-08T03:45:32.956Z,84.95
2023-01-08T03:47:37.414Z,84.42
2023-01-08T03:49:41.736Z,84.67
2023-01-08T03:51:45.742Z,85.30
2023-01-08T03:53:49.322Z,84.66
2023-01-08T03:55:50.826Z,85.18
2023-01-08T03:57:52.314Z,85.68
2023-01-08T03:59:53.775Z,85.15
2023-01-08T04:01:55.409Z,85.32
2023-01-08T04:03:57.004Z,85.53
2023-01-08T04:06:01.596Z,85.30
2023-01-08T04:08:03.059Z,85.49
2023-01-08T04:10:05.011Z,85.79
2023-01-08T04:12:06.622Z,85.94
2023-01-08T04:14:08.177Z,85.81
2023-01-08T04:16:09.766Z,85.60
2023-01-08T04:18:11.212Z,85.90
2023-01-08T04:20:12.705Z,85.96
2023-01-08T04:22:14.177Z,85.97
2023-01-08T04:24:15.667Z,86.28
2023-01-08T04:26:17.120Z,86.02
2023-01-08T04:28:19.346Z,85.64
2023-01-08T04:30:20.805Z,86.04
2023-01-08T04:32:22.252Z,85.86
2023-01-08T04:34:23.697Z,86.00
2023-01-08T04:36:25.429Z,86.21
2023-01-08T04:38:27.133Z,85.92
2023-01-08T04:40:28.733Z,86.49
2023-01-08T04:42:30.163Z,86.52
2023-01-08T04:44:31.635Z,86.80
2023-01-08T04:46:33.118Z,86.61
2023-01-08T04:48:35.374Z,86.45
2023-01-08T04:50:36.814Z,87.18
2023-01-08T04:52:38.273Z,86.43
2023-01-08T04:54:39.767Z,86.44
2023-01-08T04:56:41.213Z,86.79
2023-01-08T04:58:42.675Z,86.86
2023-01-08T05:00:44.135Z,86.90
2023-01-08T05:02:45.743Z,86.71
2023-01-08T05:04:48.291Z,86.64
2023-01-08T05:06:49.733Z,87.22
2023-01-08T05:08:51.237Z,86.92
2023-01-08T05:10:52.679Z,86.87
2023-01-08T05:13:01.389Z,86.74
2023-01-08T05:15:02.862Z,87.37
2023-01-08T05:17:04.343Z,87.52
2023-01-08T05:19:05.882Z,87.36
2023-01-08T05:21:07.378Z,87.18
2023-01-08T05:23:08.809Z,87.37
2023-01-08T05:25:10.286Z,87.49
2023-01-08T05:27:11.752Z,87.63
2023-01-08T05:29:13.367Z,86.91
2023-01-08T05:31:16.864Z,87.21
2023-01-08T05:33:18.775Z,87.80
2023-01-08T05:35:20.210Z,88.00
2023-01-08T05:37:21.865Z,87.99
2023-01-08T05:39:23.321Z,87.70
2023-01-08T05:41:24.908Z,87.99
2023-01-08T05:43:26.692Z,88.24
2023-01-08T05:45:28.429Z,89.03
2023-01-08T05:47:31.501Z,89.29
2023-01-08T05:49:32.957Z,89.08
2023-01-08T05:51:34.417Z,89.22
2023-01-08T05:53:35.996Z,88.82
2023-01-08T05:55:37.476Z,89.57
2023-01-08T05:57:38.983Z,89.15
2023-01-08T05:59:40.480Z,89.34
2023-01-08T06:01:42.020Z,89.75
2023-01-08T06:03:43.563Z,89.03
2023-01-08T06:05:45.031Z,89.03
2023-01-08T06:07:46.480Z,88.87
2023-01-08T06:09:47.914Z,89.49
2023-01-08T06:11:49.397Z,88.94
2023-01-08T06:13:50.951Z,89.49
2023-01-08T06:15:52.562Z,89.32
2023-01-08T06:17:54.031Z,89.23
2023-01-08T06:19:55.534Z,89.09
2023-01-08T06:21:57.074Z,89.05
2023-01-08T06:23:58.504Z,88.95
2023-01-08T06:26:01.355Z,89.61
2023-01-08T06:28:03.956Z,88.96
2023-01-08T06:30:06.055Z,89.16
2023-01-08T06:32:07.499Z,89.07
2023-01-08T06:34:09.001Z,88.62
2023-01-08T06:36:10.808Z,88.35
2023-01-08T06:38:12.254Z,88.74
2023-01-08T06:40:13.823Z,88.97
2023-01-08T06:42:15.335Z,89.28
2023-01-08T06:44:16.868Z,88.37
2023-01-08T06:46:18.429Z,89.40
2023-01-08T06:48:19.989Z,89.20
2023-01-08T06:50:21.591Z,88.62
2023-01-08T06:52:23.045Z,89.31
2023-01-08T06:54:24.538Z,89.93
2023-01-08T06:56:26.051Z,88.99
2023-01-08T06:58:28.566Z,89.49
2023-01-08T07:00:30.161Z,89.72
2023-01-08T07:02:31.876Z,89.53
2023-01-08T07:04:33.491Z,90.25
2023-01-08T07:06:34.936Z,89.72
2023-01-08T07:08:36.371Z,90.53
2023-01-08T07:10:37.852Z,90.55
2023-01-08T07:12:39.352Z,90.49
2023-01-08T07:14:41.296Z,90.33
2023-01-08T07:16:42.733Z,90.10
2023-01-08T07:18:44.845Z,90.30
2023-01-08T07:20:48.424Z,90.02
2023-01-08T07:22:49.862Z,90.32
2023-01-08T07:24:52.251Z,90.95
2023-01-08T07:26:53.732Z,91.23
2023-01-08T07:28:55.180Z,91.39
2023-01-08T07:30:57.389Z,90.86
2023-01-08T07:33:00.571Z,90.67
2023-01-08T07:35:02.033Z,91.01
2023-01-08T07:37:04.194Z,91.69
2023-01-08T07:39:05.633Z,91.62
2023-01-08T07:41:07.164Z,91.99
2023-01-08T07:43:09.147Z,92.27
2023-01-08T07:45:11.016Z,92.60
2023-01-08T07:47:12.469Z,93.13
2023-01-08T07:49:13.953Z,93.64
2023-01-08T07:51:15.403Z,93.96
2023-01-08T07:53:17.804Z,93.42
2023-01-08T07:55:19.340Z,94.16
2023-01-08T07:57:20.853Z,93.84
2023-01-08T07:59:22.399Z,94.97
2023-01-08T08:01:26.137Z,94.71
2023-01-08T08:03:27.889Z,94.85
2023-01-08T08:05:29.421Z,95.25
2023-01-08T08:07:31.487Z,95.12
2023-01-08T08:09:33.097Z,95.58
2023-01-08T08:11:34.687Z,96.04
2023-01-08T08:13:36.387Z,95.67
2023-01-08T08:15:38.757Z,95.41
2023-01-08T08:17:40.238Z,95.59
2023-01-08T08:19:43.941Z,95.80
2023-01-08T08:21:45.538Z,96.04
2023-01-08T08:23:46.978Z,95.97
2023-01-08T08:25:48.479Z,96.18
2023-01-08T08:27:50.053Z,96.73
2023-01-08T08:29:51.472Z,95.88
2023-01-08T08:31:52.912Z,95.98
2023-01-08T08:33:54.429Z,96.36
2023-01-08T08:35:55.882Z,96.51
2023-01-08T08:37:58.171Z,96.00
2023-01-08T08:39:59.651Z,96.28
2023-01-08T08:42:01.090Z,96.36
2023-01-08T08:44:02.533Z,95.92
2023-01-08T08:46:04.091Z,95.87
2023-01-08T08:48:07.044Z,96.04
2023-01-08T08:50:08.813Z,96.02
2023-01-08T08:52:10.295Z,95.87
2023-01-08T08:54:11.914Z,95.28
2023-01-08T08:56:13.475Z,95.62
2023-01-08T08:58:14.996Z,95.56
2023-01-08T09:00:16.768Z,95.52
2023-01-08T09:02:18.353Z,94.61
2023-01-08T09:04:19.875Z,95.14
2023-01-08T09:06:21.373Z,94.78
2023-01-08T09:08:22.832Z,94.98
2023-01-08T09:10:24.381Z,94.07
2023-01-08T09:12:25.923Z,94.56
2023-01-08T09:14:27.379Z,94.14
2023-01-08T09:16:28.894Z,94.41
2023-01-08T09:18:30.352Z,93.42
2023-01-08T09:20:32.117Z,92.95
2023-01-08T09:22:33.684Z,93.19
2023-01-08T09:24:35.158Z,93.08
2023-01-08T09:26:36.742Z,92.88
2023-01-08T09:28:39.147Z,92.53
2023-01-08T09:30:40.662Z,92.13
2023-01-08T09:32:42.132Z,92.22
2023-01-08T09:34:43.615Z,91.45
2023-01-08T09:36:45.060Z,91.40
2023-01-08T09:38:46.829Z,91.39
2023-01-08T09:40:48.257Z,90.81
2023-01-08T09:42:57.696Z,90.52
2023-01-08T09:45:01.874Z,90.27
2023-01-08T09:47:04.456Z,90.89
2023-01-08T09:49:12.717Z,90.88
2023-01-08T09:51:17.473Z,90.44
2023-01-08T09:53:19.253Z,90.85
2023-01-08T09:55:21.095Z,90.10
2023-01-08T09:57:22.887Z,90.92
2023-01-08T09:59:24.415Z,91.25
2023-01-08T10:01:33.749Z,90.68
2023-01-08T10:03:49.284Z,89.98
2023-01-08T10:05:52.005Z,90.27
2023-01-08T10:07:53.575Z,89.40
2023-01-08T10:09:56.140Z,89.90
2023-01-08T10:12:03.348Z,88.49
2023-01-08T10:14:17.157Z,88.06
2023-01-08T10:16:28.557Z,88.03
2023-01-08T10:18:30.364Z,88.41
2023-01-08T10:20:33.132Z,88.03
2023-01-08T10:22:34.797Z,89.10
2023-01-08T10:24:39.654Z,88.79
2023-01-08T10:26:41.301Z,88.35
2023-01-08T10:28:42.755Z,87.77
2023-01-08T10:30:44.443Z,87.91
2023-01-08T10:32:54.501Z,87.52
2023-01-08T10:34:57.731Z,87.25
2023-01-08T10:36:59.488Z,87.01
2023-01-08T10:39:04.365Z,86.78
2023-01-08T10:41:11.968Z,86.62
2023-01-08T10:43:28.820Z,86.35
2023-01-08T10:45:30.564Z,85.43
2023-01-08T10:47:35.893Z,85.63
2023-01-08T10:49:43.813Z,84.61
2023-01-08T10:51:50.694Z,84.12
2023-01-08T10:53:54.023Z,84.15
2023-01-08T10:56:03.984Z,82.99
2023-01-08T10:58:08.520Z,82.42
2023-01-08T11:00:31.695Z,81.74
2023-01-08T11:02:38.670Z,80.83
2023-01-08T11:04:41.941Z,79.97
2023-01-08T11:06:45.346Z,79.86
2023-01-08T11:08:51.894Z,78.36
2023-01-08T11:10:59.784Z,77.95
2023-01-08T11:13:04.558Z,74.29
2023-01-08T11:15:23.677Z,70.82
2023-01-08T11:17:26.332Z,67.08
2023-01-08T11:19:30.401Z,65.44
2023-01-08T11:21:33.512Z,61.67
2023-01-08T11:23:35.037Z,61.06
2023-01-08T11:25:37.701Z,59.99
2023-01-08T11:27:44.087Z,59.38
2023-01-08T11:29:51.996Z,58.50
2023-01-08T11:32:08.587Z,56.73
2023-01-08T11:34:22.431Z,56.85
2023-01-08T11:36:38.738Z,57.43
2023-01-08T11:38:40.203Z,55.84
2023-01-08T11:40:52.064Z,55.15
2023-01-08T11:43:03.629Z,57.94
2023-01-08T11:45:23.942Z,54.89
2023-01-08T11:47:28.403Z,55.16
2023-01-08T11:49:55.944Z,57.85
2023-01-08T11:52:23.805Z,57.61
2023-01-08T11:54:37.414Z,58.33
2023-01-08T11:56:56.420Z,60.20
2023-01-08T11:59:03.904Z,61.73
2023-01-08T12:01:23.074Z,62.15
2023-01-08T12:03:36.610Z,62.16
2023-01-08T12:05:46.531Z,62.97
2023-01-08T12:08:05.570Z,62.64
2023-01-08T12:10:27.958Z,63.68
2023-01-08T12:12:45.656Z,63.57
2023-01-08T12:15:32.035Z,64.41
2023-01-08T12:17:51.519Z,63.60
2023-01-08T12:20:34.968Z,63.88
2023-01-08T12:22:47.291Z,64.90
2023-01-08T12:24:54.640Z,64.41
2023-01-08T12:27:05.243Z,64.59
2023-01-08T12:29:41.953Z,64.61
2023-01-08T12:32:01.536Z,64.78
2023-01-08T12:34:15.862Z,65.37
2023-01-08T12:36:48.169Z,65.24
2023-01-08T12:38:56.199Z,65.32
2023-01-08T12:41:06.168Z,66.19
2023-01-08T12:43:14.890Z,65.77
2023-01-08T12:45:20.547Z,66.16
2023-01-08T12:47:27.953Z,65.62
2023-01-08T12:49:43.121Z,65.38
2023-01-08T12:52:02.809Z,65.27
2023-01-08T12:54:23.231Z,65.28
2023-01-08T12:56:43.351Z,65.97
2023-01-08T12:59:18.858Z,66.48
2023-01-08T13:01:42.533Z,66.13
2023-01-08T13:03:45.329Z,66.39
2023-01-08T13:05:46.842Z,65.79
2023-01-08T13:07:54.341Z,65.17
2023-01-08T13:10:05.758Z,65.43
2023-01-08T13:12:07.396Z,66.10
2023-01-08T13:14:12.036Z,66.25
2023-01-08T13:16:19.434Z,68.19
2023-01-08T13:18:21.608Z,66.08
2023-01-08T13:20:28.566Z,66.01
2023-01-08T13:22:32.599Z,66.81
2023-01-08T13:24:37.742Z,69.19
2023-01-08T13:26:39.200Z,67.87
2023-01-08T13:28:45.186Z,67.01
2023-01-08T13:30:49.108Z,66.87
2023-01-08T13:32:50.593Z,66.12
2023-01-08T13:35:17.112Z,65.96
2023-01-08T13:37:27.946Z,66.06
2023-01-08T13:39:39.134Z,66.14
2023-01-08T13:41:44.321Z,65.21
2023-01-08T13:43:46.722Z,65.44
2023-01-08T13:45:54.476Z,65.80
2023-01-08T13:47:57.026Z,65.89
2023-01-08T13:50:01.192Z,66.53
2023-01-08T13:52:03.031Z,66.29
2023-01-08T13:54:15.751Z,66.67
2023-01-08T13:56:18.135Z,67.37
2023-01-08T13:58:25.443Z,67.59
2023-01-08T14:00:39.141Z,67.53
2023-01-08T14:02:50.477Z,67.69
2023-01-08T14:04:53.163Z,67.84
2023-01-08T14:07:12.749Z,68.20
2023-01-08T14:09:25.324Z,68.72
2023-01-08T14:11:37.941Z,69.44
2023-01-08T14:13:39.445Z,70.01
2023-01-08T14:15:41.029Z,69.72
2023-01-08T14:17:44.012Z,70.28
2023-01-08T14:19:46.272Z,70.65
2023-01-08T14:21:55.887Z,70.44
2023-01-08T14:23:57.806Z,70.88
2023-01-08T14:26:06.371Z,70.71
2023-01-08T14:28:17.508Z,71.20
2023-01-08T14:30:19.480Z,72.18
2023-01-08T14:32:26.630Z,73.19
2023-01-08T14:34:30.945Z,72.19
2023-01-08T14:36:32.577Z,72.80
2023-01-08T14:38:34.130Z,72.98
2023-01-08T14:40:43.780Z,73.27
2023-01-08T14:42:53.462Z,74.28
2023-01-08T14:45:11.017Z,74.17
2023-01-08T14:47:18.666Z,75.04
2023-01-08T14:49:23.175Z,75.42
2023-01-08T14:51:27.964Z,75.67
2023-01-08T14:53:36.605Z,76.43
2023-01-08T14:55:44.352Z,77.43
2023-01-08T14:57:48.625Z,77.32
2023-01-08T14:59:56.809Z,77.78
2023-01-08T15:02:01.697Z,77.89
2023-01-08T15:04:20.644Z,78.20
2023-01-08T15:06:29.923Z,78.32
2023-01-08T15:08:39.969Z,78.24
2023-01-08T15:10:42.195Z,78.71
2023-01-08T15:12:43.678Z,78.72
2023-01-08T15:14:45.159Z,78.91
2023-01-08T15:16:47.672Z,78.97
2023-01-08T15:19:02.034Z,78.99
2023-01-08T15:21:03.797Z,78.97
2023-01-08T15:23:05.503Z,79.30
2023-01-08T15:25:07.817Z,78.91
2023-01-08T15:27:18.963Z,79.63
2023-01-08T15:29:37.196Z,80.15
2023-01-08T15:31:41.662Z,80.40
2023-01-08T15:33:44.742Z,81.00
2023-01-08T15:35:47.110Z,81.21
2023-01-08T15:37:48.560Z,81.66
2023-01-08T15:39:50.084Z,82.26
2023-01-08T15:42:09.829Z,82.87
2023-01-08T15:44:15.256Z,83.86
2023-01-08T15:46:16.831Z,84.56
2023-01-08T15:48:18.334Z,85.55
2023-01-08T15:50:20.490Z,86.26
2023-01-08T15:52:29.558Z,86.51
2023-01-08T15:54:31.036Z,87.69
2023-01-08T15:56:32.517Z,87.61
2023-01-08T15:58:34.028Z,87.98
2023-01-08T16:00:35.530Z,88.51
2023-01-08T16:02:53.300Z,89.19
2023-01-08T16:04:57.396Z,88.20
2023-01-08T16:06:58.856Z,88.56
2023-01-08T16:09:00.765Z,89.64
2023-01-08T16:11:02.476Z,90.32
2023-01-08T16:13:03.978Z,90.82
2023-01-08T16:15:09.014Z,92.16
2023-01-08T16:17:10.459Z,91.79
2023-01-08T16:19:11.935Z,91.99
2023-01-08T16:21:13.703Z,92.40
2023-01-08T16:23:15.251Z,91.47
2023-01-08T16:25:16.805Z,91.34
2023-01-08T16:27:18.292Z,90.03
2023-01-08T16:29:19.930Z,88.97
2023-01-08T16:31:21.500Z,88.97
2023-01-08T16:33:23.067Z,87.89
2023-01-08T16:35:24.600Z,88.27
2023-01-08T16:37:26.351Z,87.39
2023-01-08T16:39:28.080Z,86.76
2023-01-08T16:41:29.674Z,86.92
2023-01-08T16:43:39.632Z,86.40
2023-01-08T16:45:46.091Z,85.78
2023-01-08T16:47:47.596Z,85.98
2023-01-08T16:49:50.393Z,85.77
2023-01-08T16:51:51.905Z,86.26
2023-01-08T16:53:53.475Z,85.85
2023-01-08T16:55:54.920Z,85.14
2023-01-08T16:57:56.380Z,85.20
2023-01-08T16:59:57.828Z,85.67
2023-01-08T17:01:59.902Z,85.30
2023-01-08T17:04:01.658Z,85.66
2023-01-08T17:06:05.397Z,85.36
2023-01-08T17:08:08.255Z,85.62
2023-01-08T17:10:10.246Z,85.58
2023-01-08T17:12:11.720Z,85.73
2023-01-08T17:14:13.717Z,85.57
2023-01-08T17:16:17.793Z,85.61
2023-01-08T17:18:19.905Z,86.17
2023-01-08T17:20:21.595Z,85.99
2023-01-08T17:22:23.161Z,86.48
2023-01-08T17:24:24.610Z,86.28
2023-01-08T17:26:26.090Z,86.17
2023-01-08T17:28:29.055Z,86.81
2023-01-08T17:30:30.529Z,86.74
2023-01-08T17:32:32.340Z,87.04
2023-01-08T17:34:33.841Z,86.66
2023-01-08T17:36:36.163Z,87.21
2023-01-08T17:38:37.665Z,87.44
2023-01-08T17:40:39.165Z,87.67
2023-01-08T17:42:40.678Z,88.36
2023-01-08T17:44:42.154Z,88.52
2023-01-08T17:46:45.332Z,88.31
2023-01-08T17:48:46.898Z,88.49
2023-01-08T17:50:48.338Z,88.59
2023-01-08T17:52:49.875Z,88.86
2023-01-08T17:54:52.590Z,89.02
2023-01-08T17:56:54.068Z,89.57
2023-01-08T17:58:55.587Z,89.48
2023-01-08T18:00:57.107Z,89.85
2023-01-08T18:02:58.587Z,90.46
2023-01-08T18:05:00.105Z,90.19
2023-01-08T18:07:01.618Z,89.82
2023-01-08T18:09:04.215Z,90.23
2023-01-08T18:11:07.480Z,90.63
2023-01-08T18:13:08.961Z,90.33
2023-01-08T18:15:10.900Z,90.36
2023-01-08T18:17:12.363Z,90.75
2023-01-08T18:19:14.292Z,90.90
2023-01-08T18:21:15.880Z,90.57
2023-01-08T18:23:18.227Z,90.95
2023-01-08T18:25:19.992Z,90.94
2023-01-08T18:27:21.440Z,90.95
2023-01-08T18:29:22.908Z,91.18
2023-01-08T18:31:24.468Z,91.13
2023-01-08T18:33:27.170Z,91.33
2023-01-08T18:35:28.653Z,91.47
2023-01-08T18:37:32.603Z,91.45
2023-01-08T18:39:34.178Z,91.69
2023-01-08T18:41:58.796Z,91.38
2023-01-08T18:44:01.079Z,91.76
2023-01-08T18:46:05.512Z,91.59
2023-01-08T18:48:09.419Z,91.24
2023-01-08T18:50:11.618Z,91.44
2023-01-08T18:52:14.098Z,91.96
2023-01-08T18:54:15.748Z,91.55
2023-01-08T18:56:23.888Z,91.51
2023-01-08T18:58:25.607Z,92.03
2023-01-08T19:00:27.448Z,92.28
2023-01-08T19:02:30.482Z,92.50
2023-01-08T19:04:31.962Z,91.71
2023-01-08T19:06:33.563Z,91.98
2023-01-08T19:08:35.238Z,92.56
2023-01-08T19:10:38.019Z,92.42
2023-01-08T19:12:39.568Z,92.91
2023-01-08T19:14:41.144Z,92.59
2023-01-08T19:16:48.364Z,92.46
2023-01-08T19:18:50.306Z,92.79
2023-01-08T19:20:51.772Z,93.00
2023-01-08T19:22:54.357Z,92.29
2023-01-08T19:24:56.657Z,93.33
2023-01-08T19:26:58.164Z,93.14
2023-01-08T19:28:59.610Z,93.86
2023-01-08T19:31:02.041Z,93.60
2023-01-08T19:33:03.816Z,92.89
2023-01-08T19:35:06.017Z,93.64
2023-01-08T19:37:07.608Z,93.16
2023-01-08T19:39:11.216Z,93.55
2023-01-08T19:41:32.207Z,93.72
2023-01-08T19:43:42.696Z,93.72
2023-01-08T19:45:44.232Z,93.33
2023-01-08T19:47:45.777Z,92.98
2023-01-08T19:49:48.810Z,93.68
2023-01-08T19:51:51.069Z,93.63
2023-01-08T19:53:53.200Z,93.65
2023-01-08T19:55:54.662Z,93.06
2023-01-08T19:57:56.357Z,92.94
2023-01-08T19:59:57.866Z,93.33
2023-01-08T20:01:59.488Z,93.14
2023-01-08T20:04:01.177Z,93.16
2023-01-08T20:06:19.626Z,93.73
2023-01-08T20:08:21.102Z,93.36
2023-01-08T20:10:22.646Z,93.77
2023-01-08T20:12:24.681Z,93.31
2023-01-08T20:14:26.137Z,93.52
2023-01-08T20:16:29.562Z,93.39
2023-01-08T20:18:31.756Z,92.65
2023-01-08T20:20:33.214Z,92.50
2023-01-08T20:22:34.810Z,93.10
2023-01-08T20:24:38.351Z,93.20
2023-01-08T20:26:44.377Z,93.08
2023-01-08T20:28:46.845Z,92.25
2023-01-08T20:30:48.696Z,92.32
2023-01-08T20:34:56.559Z,92.68
2023-01-08T20:36:58.431Z,92.20
2023-01-08T20:39:08.934Z,91.97
2023-01-08T20:41:11.536Z,92.20
2023-01-08T20:43:13.198Z,92.30
2023-01-08T20:45:15.013Z,92.27
2023-01-08T20:47:16.569Z,91.91
2023-01-08T20:49:20.419Z,91.27
2023-01-08T20:51:21.898Z,91.62
2023-01-08T20:53:24.440Z,91.47
2023-01-08T20:55:25.944Z,91.96
2023-01-08T20:57:28.223Z,91.10
2023-01-08T20:59:29.854Z,91.47
2023-01-08T21:01:33.806Z,91.75
2023-01-08T21:03:36.157Z,91.04
2023-01-08T21:05:39.469Z,91.35
2023-01-08T21:07:40.961Z,90.77
2023-01-08T21:09:44.289Z,91.29
2023-01-08T21:11:45.840Z,90.66
2023-01-08T21:13:47.575Z,91.11
2023-01-08T21:15:49.008Z,90.95
2023-01-08T21:17:50.797Z,91.60
2023-01-08T21:19:52.274Z,91.35
2023-01-08T21:21:53.757Z,90.64
2023-01-08T21:23:55.712Z,90.72
2023-01-08T21:26:03.983Z,91.13
2023-01-08T21:28:05.768Z,91.53
2023-01-08T21:30:08.062Z,91.44
2023-01-08T21:32:09.602Z,90.77
2023-01-08T21:34:11.785Z,91.29
2023-01-08T21:36:16.737Z,90.60
2023-01-08T21:38:18.187Z,90.89
2023-01-08T21:40:19.855Z,90.77
2023-01-08T21:42:39.705Z,91.03
2023-01-08T21:44:59.618Z,90.73
2023-01-08T21:47:02.402Z,91.33
2023-01-08T21:49:03.855Z,91.56
2023-01-08T21:51:05.549Z,90.90
2023-01-08T21:53:25.643Z,91.36
2023-01-08T21:55:27.357Z,91.22
2023-01-08T21:57:28.977Z,90.80
2023-01-08T21:59:30.494Z,90.59
2023-01-08T22:01:32.060Z,90.80
2023-01-08T22:03:33.540Z,91.16
2023-01-08T22:05:34.992Z,90.96
2023-01-08T22:07:36.913Z,90.96
2023-01-08T22:09:38.380Z,90.90
2023-01-08T22:11:40.250Z,91.19
2023-01-08T22:13:41.787Z,90.86
2023-01-08T22:15:43.311Z,90.99
2023-01-08T22:17:44.895Z,90.65
2023-01-08T22:19:46.356Z,90.98
2023-01-08T22:21:47.816Z,91.14
2023-01-08T22:23:49.278Z,90.65
2023-01-08T22:25:50.740Z,90.79
2023-01-08T22:27:54.502Z,91.39
2023-01-08T22:29:56.088Z,91.43
2023-01-08T22:31:57.637Z,90.66
2023-01-08T22:34:00.392Z,91.09
2023-01-08T22:36:06.745Z,90.93
2023-01-08T22:38:09.074Z,91.19
2023-01-08T22:40:11.062Z,91.32
2023-01-08T22:42:12.530Z,91.68
2023-01-08T22:44:14.737Z,91.61
2023-01-08T22:46:16.544Z,90.83
2023-01-08T22:48:18.009Z,90.75
2023-01-08T22:50:19.594Z,91.28
2023-01-08T22:52:21.124Z,91.29
2023-01-08T22:54:22.760Z,91.25
2023-01-08T22:56:24.646Z,90.89
2023-01-08T22:58:28.017Z,90.66
2023-01-08T23:00:29.499Z,90.71
2023-01-08T23:02:31.133Z,90.85
2023-01-08T23:04:32.687Z,91.50
2023-01-08T23:06:34.568Z,91.03
2023-01-08T23:08:36.258Z,91.49
2023-01-08T23:10:38.083Z,91.38
2023-01-08T23:12:39.522Z,90.97
2023-01-08T23:14:41.779Z,91.03
2023-01-08T23:16:43.500Z,91.28
2023-01-08T23:18:45.794Z,90.63
2023-01-08T23:20:47.288Z,91.04
2023-01-08T23:22:49.113Z,90.88
2023-01-08T23:24:50.600Z,90.60
2023-01-08T23:26:52.172Z,90.97
2023-01-08T23:28:55.447Z,90.85
2023-01-08T23:30:56.962Z,90.73
2023-01-08T23:32:59.018Z,91.18
2023-01-08T23:35:00.480Z,90.99
2023-01-08T23:37:01.937Z,91.48
2023-01-08T23:39:04.666Z,91.08
2023-01-08T23:41:07.174Z,91.54
2023-01-08T23:43:09.063Z,91.51
2023-01-08T23:45:11.471Z,91.41
2023-01-08T23:47:12.957Z,91.96
2023-01-08T23:49:14.506Z,91.66
2023-01-08T23:51:15.976Z,91.84
2023-01-08T23:53:17.417Z,91.60
2023-01-08T23:55:19.085Z,91.73
2023-01-08T23:57:20.580Z,92.21
2023-01-08T23:59:22.075Z,92.54
